aviador You're here:

KVDF Decoded Metar

TAMPA/VANDENBURG in FL, USA
Report Time2017-07-22 10:15:00
UTC Time2017-07-22 10:39:08
Flight Rules ifr IFR
WindCalm
Visibility4023 m
Phenomena:Mist
Clouds:N/A
Expected CloudBase > 400 ft AGL from Temp-Dew spread
CeilingNone
Temp23°C (ISA +8)
Dew Point22°C (94% RH)
QNH1018 hPa
Density Alt1,138 ft
Elevation23 ft
Report Wrong Elevation
Raw Report
METAR KVDF 221015Z AUTO 00000KT 2 1/2SM BR CLR 23/22 A3005 RMK AO2=

Extra information for KVDF:More info

Metar Taf Metar & Taf Last 4 Metars F.Rules Stats Wind Profile Meteogram Temp Stats Airport Information Weather charts Add Link Nearby VenuesMetar ALERT Operation Metar Decoded Social comments

AIRNAV info for KVDF